createdAt,value
2022-12-27T00:05:43.442Z,98904.23
2022-12-27T00:18:35.115Z,98889.00
2022-12-27T00:25:34.031Z,98886.55
2022-12-27T00:31:00.998Z,98878.50
2022-12-27T00:43:14.608Z,98864.14
2022-12-27T00:49:19.192Z,98872.38
2022-12-27T00:54:58.558Z,98865.81
2022-12-27T01:04:08.620Z,98857.47
2022-12-27T01:08:11.598Z,98840.42
2022-12-27T01:14:47.685Z,98835.02
2022-12-27T01:20:49.786Z,98833.25
2022-12-27T01:26:50.036Z,98827.02
2022-12-27T01:33:31.108Z,98824.17
2022-12-27T01:40:07.020Z,98815.73
2022-12-27T01:46:40.407Z,98796.30
2022-12-27T01:52:54.818Z,98793.61
2022-12-27T01:58:53.120Z,98803.81
2022-12-27T02:11:46.535Z,98810.45
2022-12-27T02:18:13.102Z,98809.23
2022-12-27T02:49:21.602Z,98839.94
2022-12-27T03:02:59.788Z,98841.86
2022-12-27T03:23:24.714Z,98879.86
2022-12-27T03:29:45.638Z,98879.25
2022-12-27T03:43:07.235Z,98918.56
2022-12-27T03:49:57.089Z,98927.73
2022-12-27T04:13:12.108Z,98967.15
2022-12-27T04:25:59.569Z,98992.39
2022-12-27T04:41:03.398Z,99015.70
2022-12-27T05:22:21.653Z,99072.41
2022-12-27T05:36:27.670Z,99113.12
2022-12-27T09:00:04.914Z,99652.75
2022-12-27T09:13:00.867Z,99659.69
2022-12-27T09:31:28.871Z,99679.70
2022-12-27T09:38:04.988Z,99680.55
2022-12-27T09:58:46.260Z,99683.95
2022-12-27T10:05:20.309Z,99686.39
2022-12-27T10:11:47.487Z,99693.14
2022-12-27T10:17:53.107Z,99692.97
2022-12-27T10:24:05.549Z,99698.30
2022-12-27T10:30:28.618Z,99704.84
2022-12-27T10:36:00.280Z,99692.87
2022-12-27T10:42:20.564Z,99689.05
2022-12-27T10:55:31.920Z,99682.67
2022-12-27T11:02:03.119Z,99686.11
2022-12-27T11:08:03.867Z,99674.09
2022-12-27T11:14:28.275Z,99674.61
2022-12-27T11:20:18.559Z,99679.89
2022-12-27T11:26:34.439Z,99683.02
2022-12-27T11:32:51.367Z,99686.70
2022-12-27T11:39:24.835Z,99683.61
2022-12-27T11:45:22.761Z,99685.55
2022-12-27T11:51:50.128Z,99690.33
2022-12-27T11:57:51.191Z,99685.67
2022-12-27T12:15:09.677Z,99679.05
2022-12-27T12:40:03.211Z,99686.67
2022-12-27T13:17:48.279Z,99706.13
2022-12-27T13:24:30.167Z,99704.05
2022-12-27T13:30:34.252Z,99705.11
2022-12-27T13:43:45.068Z,99720.29
2022-12-27T13:50:18.122Z,99715.41
2022-12-27T14:01:56.141Z,99723.52
2022-12-27T14:08:12.510Z,99728.09
2022-12-27T14:14:09.538Z,99733.61
2022-12-27T14:34:30.940Z,99747.66
2022-12-27T14:40:21.352Z,99763.27
2022-12-27T14:46:18.123Z,99760.27
2022-12-27T14:58:16.392Z,99765.75
2022-12-27T15:04:01.663Z,99768.05
2022-12-27T15:09:47.212Z,99765.81
2022-12-27T15:15:51.528Z,99770.52
2022-12-27T15:22:14.757Z,99773.43
2022-12-27T15:28:34.189Z,99788.67
2022-12-27T15:34:15.814Z,99801.69
2022-12-27T15:40:16.473Z,99801.83
2022-12-27T15:46:32.481Z,99803.91
2022-12-27T15:53:02.004Z,99805.94
2022-12-27T15:59:06.428Z,99800.71
2022-12-27T16:05:48.961Z,99805.27
2022-12-27T16:11:52.143Z,99796.22
2022-12-27T16:18:18.095Z,99805.20
2022-12-27T16:24:57.758Z,99819.69
2022-12-27T16:31:09.299Z,99852.29
2022-12-27T16:37:32.613Z,99857.31
2022-12-27T16:44:01.602Z,99851.69
2022-12-27T16:50:24.541Z,99861.02
2022-12-27T16:56:42.465Z,99870.17
2022-12-27T17:03:01.892Z,99868.83
2022-12-27T17:09:10.345Z,99863.00
2022-12-27T17:15:24.925Z,99873.69
2022-12-27T17:21:41.775Z,99873.47
2022-12-27T17:28:00.855Z,99874.73
2022-12-27T17:33:48.158Z,99888.55
2022-12-27T17:40:12.782Z,99884.38
2022-12-27T17:46:29.902Z,99889.90
2022-12-27T17:52:25.389Z,99896.23
2022-12-27T17:58:33.576Z,99894.06
2022-12-27T18:24:48.303Z,99912.86
2022-12-27T18:30:58.842Z,99917.23
2022-12-27T18:58:32.049Z,99933.16
2022-12-27T19:04:33.477Z,99934.48
2022-12-27T19:18:33.351Z,99957.48
2022-12-27T19:24:05.870Z,99967.06
2022-12-27T19:30:10.689Z,99972.23
2022-12-27T19:36:32.564Z,99966.64
2022-12-27T19:43:04.428Z,99966.19
2022-12-27T19:57:19.346Z,99973.80
2022-12-27T20:03:33.573Z,99971.13
2022-12-27T20:09:45.425Z,99975.02
2022-12-27T20:16:17.716Z,99973.70
2022-12-27T20:22:58.008Z,99978.42
2022-12-27T20:36:33.219Z,99985.87
2022-12-27T20:42:28.164Z,99986.23
2022-12-27T21:08:49.002Z,100014.75
2022-12-27T21:15:31.132Z,100014.87
2022-12-27T21:20:49.418Z,100015.17
2022-12-27T21:26:33.986Z,100017.72
2022-12-27T21:32:30.540Z,100012.37
2022-12-27T21:38:47.308Z,100015.56
2022-12-27T21:44:35.437Z,100018.05
2022-12-27T21:50:49.742Z,100020.89
2022-12-27T21:56:46.088Z,100018.73
2022-12-27T22:03:10.675Z,100020.33
2022-12-27T22:08:55.361Z,100009.48
2022-12-27T22:15:19.697Z,100006.23
2022-12-27T22:21:27.226Z,100007.08
2022-12-27T22:34:39.881Z,100006.45
2022-12-27T22:40:56.655Z,100007.39
2022-12-27T22:47:27.674Z,100012.39
2022-12-27T22:53:42.840Z,100010.17
2022-12-27T22:59:48.881Z,100000.27
2022-12-27T23:12:46.249Z,99988.55
2022-12-27T23:25:39.774Z,99981.88
2022-12-27T23:30:59.449Z,99979.95
2022-12-27T23:37:21.145Z,99982.02
2022-12-27T23:42:07.553Z,99983.09
2022-12-27T23:54:49.738Z,99979.15
